Seville, Florida
Current Conditions -  °F | °C
As of 9:50 AM on Saturday 25 Oct 2014 (Local Time) from KXFL Reporting Station
Clear Clear  
Wind Chill: 68°   Ceiling: Unl
Heat Index: 68°   Visibility: 7mi
Dew Point: 54°   Wind: 7mph
Humidity: 60%   Direction: 340°NNW
Pressure: 30.01"   Gusts: NA
Location:  29.32°N, 81.49°W
Report Text: KXFL 251350Z 34006KT 7SM CLR 20/12 A3001
Loading
Personal Weather Stations






























Interactive Weather Map
Tropical Storm Tracking
New forecast layout! Learn more

10-Day Weather Forecast

Advertisements
Track Severe Weather on mobile